sensor_id;sensor_type;location;lat;lon;timestamp;P1;durP1;ratioP1;P2;durP2;ratioP2
57893;SDS011;43710;47.460;19.034;2023-09-19T03:59:42;18.90;;;10.82;;
57893;SDS011;43710;47.460;19.034;2023-09-19T04:02:48;14.32;;;10.73;;
57893;SDS011;43710;47.460;19.034;2023-09-19T04:05:51;16.02;;;10.82;;
57893;SDS011;43710;47.460;19.034;2023-09-19T04:08:53;15.98;;;10.23;;
57893;SDS011;43710;47.460;19.034;2023-09-19T04:11:56;15.23;;;9.82;;
57893;SDS011;43710;47.460;19.034;2023-09-19T04:14:58;12.88;;;9.73;;
57893;SDS011;43710;47.460;19.034;2023-09-19T04:18:01;13.43;;;9.38;;
57893;SDS011;43710;47.460;19.034;2023-09-19T04:21:05;16.30;;;10.52;;
57893;SDS011;43710;47.460;19.034;2023-09-19T04:24:08;15.98;;;9.85;;
57893;SDS011;43710;47.460;19.034;2023-09-19T04:27:11;15.90;;;10.43;;
57893;SDS011;43710;47.460;19.034;2023-09-19T04:30:16;18.00;;;10.55;;
57893;SDS011;43710;47.460;19.034;2023-09-19T04:33:19;17.15;;;9.80;;
57893;SDS011;43710;47.460;19.034;2023-09-19T04:36:21;16.35;;;10.15;;
57893;SDS011;43710;47.460;19.034;2023-09-19T04:39:37;15.90;;;9.90;;
57893;SDS011;43710;47.460;19.034;2023-09-19T04:42:39;14.20;;;10.35;;
57893;SDS011;43710;47.460;19.034;2023-09-19T04:45:42;17.52;;;10.52;;
57893;SDS011;43710;47.460;19.034;2023-09-19T04:48:45;14.85;;;10.43;;
57893;SDS011;43710;47.460;19.034;2023-09-19T04:51:47;18.17;;;9.80;;
57893;SDS011;43710;47.460;19.034;2023-09-19T04:54:49;10.48;;;6.53;;
57893;SDS011;43710;47.460;19.034;2023-09-19T04:57:52;10.68;;;4.32;;
57893;SDS011;43710;47.460;19.034;2023-09-19T05:00:55;11.38;;;3.60;;
57893;SDS011;43710;47.460;19.034;2023-09-19T05:03:58;5.55;;;2.10;;
57893;SDS011;43710;47.460;19.034;2023-09-19T05:07:00;4.75;;;2.00;;
57893;SDS011;43710;47.460;19.034;2023-09-19T05:10:05;4.47;;;1.50;;
57893;SDS011;43710;47.460;19.034;2023-09-19T05:13:09;4.40;;;1.62;;
57893;SDS011;43710;47.460;19.034;2023-09-19T05:16:14;3.30;;;1.40;;
57893;SDS011;43710;47.460;19.034;2023-09-19T05:19:17;7.32;;;1.80;;
57893;SDS011;43710;47.460;19.034;2023-09-19T05:22:20;3.28;;;1.30;;
57893;SDS011;43710;47.460;19.034;2023-09-19T05:25:22;4.37;;;1.10;;
57893;SDS011;43710;47.460;19.034;2023-09-19T05:28:24;4.68;;;1.30;;
57893;SDS011;43710;47.460;19.034;2023-09-19T05:31:27;3.67;;;1.10;;
57893;SDS011;43710;47.460;19.034;2023-09-19T05:34:33;1.00;;;0.90;;
57893;SDS011;43710;47.460;19.034;2023-09-19T05:37:35;2.30;;;0.80;;
57893;SDS011;43710;47.460;19.034;2023-09-19T05:40:38;4.93;;;1.40;;
57893;SDS011;43710;47.460;19.034;2023-09-19T05:46:46;5.18;;;1.10;;
57893;SDS011;43710;47.460;19.034;2023-09-19T05:49:50;11.05;;;1.20;;
57893;SDS011;43710;47.460;19.034;2023-09-19T05:55:58;8.13;;;1.45;;
57893;SDS011;43710;47.460;19.034;2023-09-19T05:59:04;1.12;;;0.90;;
57893;SDS011;43710;47.460;19.034;2023-09-19T06:02:07;1.55;;;0.90;;
57893;SDS011;43710;47.460;19.034;2023-09-19T06:05:12;4.90;;;1.37;;
57893;SDS011;43710;47.460;19.034;2023-09-19T06:08:14;3.33;;;1.05;;
57893;SDS011;43710;47.460;19.034;2023-09-19T06:11:18;3.45;;;1.30;;
57893;SDS011;43710;47.460;19.034;2023-09-19T06:14:22;1.80;;;0.95;;
57893;SDS011;43710;47.460;19.034;2023-09-19T06:17:26;2.62;;;1.00;;
57893;SDS011;43710;47.460;19.034;2023-09-19T06:20:30;2.40;;;1.62;;
57893;SDS011;43710;47.460;19.034;2023-09-19T06:23:34;4.07;;;1.20;;
57893;SDS011;43710;47.460;19.034;2023-09-19T06:26:37;2.83;;;1.23;;
57893;SDS011;43710;47.460;19.034;2023-09-19T06:29:39;1.65;;;0.82;;
57893;SDS011;43710;47.460;19.034;2023-09-19T06:32:42;4.18;;;2.70;;
57893;SDS011;43710;47.460;19.034;2023-09-19T06:35:46;1.67;;;1.12;;
57893;SDS011;43710;47.460;19.034;2023-09-19T06:38:49;5.78;;;1.40;;
57893;SDS011;43710;47.460;19.034;2023-09-19T06:41:53;8.88;;;2.00;;
57893;SDS011;43710;47.460;19.034;2023-09-19T06:44:56;3.92;;;1.08;;
57893;SDS011;43710;47.460;19.034;2023-09-19T06:47:58;2.10;;;1.27;;
57893;SDS011;43710;47.460;19.034;2023-09-19T06:51:02;2.53;;;0.90;;
57893;SDS011;43710;47.460;19.034;2023-09-19T06:54:07;3.10;;;1.60;;
57893;SDS011;43710;47.460;19.034;2023-09-19T06:57:10;4.28;;;0.88;;
57893;SDS011;43710;47.460;19.034;2023-09-19T07:00:12;2.17;;;1.12;;
57893;SDS011;43710;47.460;19.034;2023-09-19T07:03:24;4.28;;;0.90;;
57893;SDS011;43710;47.460;19.034;2023-09-19T07:06:29;2.95;;;1.10;;
57893;SDS011;43710;47.460;19.034;2023-09-19T07:09:31;0.85;;;0.65;;
57893;SDS011;43710;47.460;19.034;2023-09-19T07:12:33;4.80;;;1.48;;
57893;SDS011;43710;47.460;19.034;2023-09-19T07:15:36;3.97;;;0.90;;
57893;SDS011;43710;47.460;19.034;2023-09-19T07:18:49;3.35;;;0.88;;
57893;SDS011;43710;47.460;19.034;2023-09-19T07:21:51;1.83;;;0.85;;
57893;SDS011;43710;47.460;19.034;2023-09-19T07:24:54;3.33;;;0.90;;
57893;SDS011;43710;47.460;19.034;2023-09-19T07:27:57;3.53;;;0.90;;
57893;SDS011;43710;47.460;19.034;2023-09-19T07:31:03;2.35;;;1.08;;
57893;SDS011;43710;47.460;19.034;2023-09-19T07:34:07;2.37;;;1.10;;
57893;SDS011;43710;47.460;19.034;2023-09-19T07:37:11;7.57;;;1.23;;
57893;SDS011;43710;47.460;19.034;2023-09-19T07:40:15;2.45;;;1.10;;
57893;SDS011;43710;47.460;19.034;2023-09-19T07:43:18;1.15;;;0.80;;
57893;SDS011;43710;47.460;19.034;2023-09-19T07:46:20;3.42;;;1.10;;
57893;SDS011;43710;47.460;19.034;2023-09-19T07:49:24;3.03;;;1.80;;
57893;SDS011;43710;47.460;19.034;2023-09-19T07:52:27;3.20;;;1.60;;
57893;SDS011;43710;47.460;19.034;2023-09-19T07:55:30;3.28;;;1.10;;
57893;SDS011;43710;47.460;19.034;2023-09-19T07:58:33;3.08;;;1.30;;
57893;SDS011;43710;47.460;19.034;2023-09-19T08:01:35;2.40;;;1.60;;
57893;SDS011;43710;47.460;19.034;2023-09-19T08:04:39;3.22;;;1.70;;
57893;SDS011;43710;47.460;19.034;2023-09-19T08:07:43;3.00;;;2.33;;
57893;SDS011;43710;47.460;19.034;2023-09-19T08:10:52;4.87;;;2.22;;
57893;SDS011;43710;47.460;19.034;2023-09-19T08:13:55;4.30;;;1.58;;
57893;SDS011;43710;47.460;19.034;2023-09-19T08:16:57;3.28;;;1.50;;
57893;SDS011;43710;47.460;19.034;2023-09-19T08:20:01;3.72;;;2.00;;
57893;SDS011;43710;47.460;19.034;2023-09-19T08:23:07;4.03;;;1.83;;
57893;SDS011;43710;47.460;19.034;2023-09-19T08:26:10;5.32;;;1.52;;
57893;SDS011;43710;47.460;19.034;2023-09-19T08:29:12;2.92;;;1.77;;
57893;SDS011;43710;47.460;19.034;2023-09-19T08:32:14;3.30;;;1.40;;
57893;SDS011;43710;47.460;19.034;2023-09-19T08:35:17;3.37;;;1.87;;
57893;SDS011;43710;47.460;19.034;2023-09-19T08:38:19;3.22;;;1.20;;
57893;SDS011;43710;47.460;19.034;2023-09-19T08:41:22;2.95;;;1.50;;
57893;SDS011;43710;47.460;19.034;2023-09-19T08:44:24;3.80;;;2.12;;
57893;SDS011;43710;47.460;19.034;2023-09-19T08:47:43;2.28;;;1.42;;
57893;SDS011;43710;47.460;19.034;2023-09-19T08:51:03;5.07;;;1.50;;
57893;SDS011;43710;47.460;19.034;2023-09-19T08:54:12;2.95;;;1.60;;
57893;SDS011;43710;47.460;19.034;2023-09-19T08:57:28;3.55;;;1.60;;
57893;SDS011;43710;47.460;19.034;2023-09-19T09:00:36;4.68;;;1.60;;
57893;SDS011;43710;47.460;19.034;2023-09-19T09:03:44;5.53;;;1.80;;
57893;SDS011;43710;47.460;19.034;2023-09-19T09:06:51;4.12;;;1.90;;
57893;SDS011;43710;47.460;19.034;2023-09-19T09:09:55;5.32;;;2.10;;
57893;SDS011;43710;47.460;19.034;2023-09-19T09:12:57;4.95;;;1.85;;
57893;SDS011;43710;47.460;19.034;2023-09-19T09:16:00;5.40;;;2.35;;
57893;SDS011;43710;47.460;19.034;2023-09-19T09:19:03;6.40;;;2.45;;
57893;SDS011;43710;47.460;19.034;2023-09-19T09:22:07;5.05;;;2.00;;
57893;SDS011;43710;47.460;19.034;2023-09-19T09:25:11;3.62;;;1.83;;
57893;SDS011;43710;47.460;19.034;2023-09-19T09:28:13;3.87;;;2.30;;
57893;SDS011;43710;47.460;19.034;2023-09-19T09:31:25;6.03;;;2.08;;
57893;SDS011;43710;47.460;19.034;2023-09-19T09:34:33;5.28;;;2.37;;
57893;SDS011;43710;47.460;19.034;2023-09-19T09:37:36;3.35;;;1.87;;
57893;SDS011;43710;47.460;19.034;2023-09-19T09:40:47;4.95;;;2.10;;
57893;SDS011;43710;47.460;19.034;2023-09-19T09:44:20;4.30;;;2.00;;
57893;SDS011;43710;47.460;19.034;2023-09-19T09:47:40;4.37;;;2.20;;
57893;SDS011;43710;47.460;19.034;2023-09-19T09:50:59;5.72;;;2.60;;
57893;SDS011;43710;47.460;19.034;2023-09-19T09:54:15;2.90;;;2.08;;
57893;SDS011;43710;47.460;19.034;2023-09-19T09:57:20;4.03;;;2.10;;
57893;SDS011;43710;47.460;19.034;2023-09-19T10:00:26;3.37;;;1.90;;
57893;SDS011;43710;47.460;19.034;2023-09-19T10:03:38;4.85;;;1.90;;
57893;SDS011;43710;47.460;19.034;2023-09-19T10:06:42;4.32;;;2.03;;
57893;SDS011;43710;47.460;19.034;2023-09-19T10:09:50;3.50;;;2.22;;
57893;SDS011;43710;47.460;19.034;2023-09-19T10:12:53;4.95;;;2.85;;
57893;SDS011;43710;47.460;19.034;2023-09-19T10:16:06;6.20;;;3.45;;
57893;SDS011;43710;47.460;19.034;2023-09-19T10:19:15;7.28;;;3.42;;
57893;SDS011;43710;47.460;19.034;2023-09-19T10:22:24;4.95;;;3.03;;
57893;SDS011;43710;47.460;19.034;2023-09-19T10:25:29;4.10;;;3.00;;
57893;SDS011;43710;47.460;19.034;2023-09-19T10:28:35;5.80;;;3.37;;
57893;SDS011;43710;47.460;19.034;2023-09-19T10:31:40;4.60;;;3.28;;
57893;SDS011;43710;47.460;19.034;2023-09-19T10:34:49;4.55;;;3.40;;
57893;SDS011;43710;47.460;19.034;2023-09-19T10:37:57;5.62;;;3.72;;
57893;SDS011;43710;47.460;19.034;2023-09-19T10:41:03;4.90;;;3.67;;
57893;SDS011;43710;47.460;19.034;2023-09-19T10:44:07;5.50;;;3.85;;
57893;SDS011;43710;47.460;19.034;2023-09-19T10:47:11;3.87;;;3.30;;
57893;SDS011;43710;47.460;19.034;2023-09-19T10:50:21;4.25;;;3.47;;
57893;SDS011;43710;47.460;19.034;2023-09-19T10:53:27;5.30;;;3.70;;
57893;SDS011;43710;47.460;19.034;2023-09-19T10:56:35;4.93;;;3.55;;
57893;SDS011;43710;47.460;19.034;2023-09-19T10:59:40;7.25;;;3.80;;
57893;SDS011;43710;47.460;19.034;2023-09-19T11:06:17;9.38;;;4.20;;
57893;SDS011;43710;47.460;19.034;2023-09-19T11:09:21;6.10;;;3.92;;
57893;SDS011;43710;47.460;19.034;2023-09-19T11:19:01;4.28;;;3.65;;
57893;SDS011;43710;47.460;19.034;2023-09-19T11:22:09;4.32;;;3.05;;
57893;SDS011;43710;47.460;19.034;2023-09-19T11:28:32;2.80;;;2.37;;
57893;SDS011;43710;47.460;19.034;2023-09-19T11:31:44;2.83;;;1.83;;
57893;SDS011;43710;47.460;19.034;2023-09-19T11:34:47;3.05;;;1.42;;
57893;SDS011;43710;47.460;19.034;2023-09-19T11:44:39;2.53;;;1.67;;
57893;SDS011;43710;47.460;19.034;2023-09-19T11:47:44;6.15;;;1.52;;
57893;SDS011;43710;47.460;19.034;2023-09-19T11:50:48;6.03;;;1.37;;
57893;SDS011;43710;47.460;19.034;2023-09-19T11:53:53;3.85;;;1.48;;
57893;SDS011;43710;47.460;19.034;2023-09-19T11:57:27;6.03;;;1.50;;
57893;SDS011;43710;47.460;19.034;2023-09-19T12:00:32;4.55;;;1.67;;
57893;SDS011;43710;47.460;19.034;2023-09-19T12:03:37;3.30;;;1.42;;
57893;SDS011;43710;47.460;19.034;2023-09-19T12:06:43;2.85;;;1.48;;
57893;SDS011;43710;47.460;19.034;2023-09-19T12:13:06;4.55;;;1.70;;
57893;SDS011;43710;47.460;19.034;2023-09-19T12:16:16;4.87;;;1.80;;
57893;SDS011;43710;47.460;19.034;2023-09-19T12:19:24;5.83;;;2.10;;
57893;SDS011;43710;47.460;19.034;2023-09-19T12:22:28;4.20;;;2.20;;
57893;SDS011;43710;47.460;19.034;2023-09-19T12:25:42;4.15;;;1.98;;
57893;SDS011;43710;47.460;19.034;2023-09-19T12:28:49;3.03;;;1.90;;
57893;SDS011;43710;47.460;19.034;2023-09-19T12:31:55;3.22;;;1.80;;
57893;SDS011;43710;47.460;19.034;2023-09-19T12:35:02;2.15;;;1.67;;
57893;SDS011;43710;47.460;19.034;2023-09-19T12:38:09;4.40;;;2.00;;
57893;SDS011;43710;47.460;19.034;2023-09-19T12:41:12;4.50;;;1.95;;
57893;SDS011;43710;47.460;19.034;2023-09-19T12:44:14;3.67;;;1.75;;
57893;SDS011;43710;47.460;19.034;2023-09-19T12:47:18;2.75;;;1.65;;
57893;SDS011;43710;47.460;19.034;2023-09-19T12:50:26;3.60;;;1.80;;
57893;SDS011;43710;47.460;19.034;2023-09-19T12:53:32;7.12;;;2.30;;
57893;SDS011;43710;47.460;19.034;2023-09-19T12:56:41;4.68;;;2.05;;
57893;SDS011;43710;47.460;19.034;2023-09-19T12:59:51;6.05;;;2.42;;
57893;SDS011;43710;47.460;19.034;2023-09-19T13:03:13;4.53;;;1.87;;
57893;SDS011;43710;47.460;19.034;2023-09-19T13:06:36;3.20;;;1.75;;
57893;SDS011;43710;47.460;19.034;2023-09-19T13:10:02;4.75;;;1.75;;
57893;SDS011;43710;47.460;19.034;2023-09-19T13:13:22;3.17;;;1.90;;
57893;SDS011;43710;47.460;19.034;2023-09-19T13:16:29;3.55;;;1.60;;
57893;SDS011;43710;47.460;19.034;2023-09-19T13:26:09;3.72;;;1.73;;
57893;SDS011;43710;47.460;19.034;2023-09-19T13:29:12;2.20;;;1.60;;
57893;SDS011;43710;47.460;19.034;2023-09-19T13:32:16;4.97;;;1.58;;
57893;SDS011;43710;47.460;19.034;2023-09-19T13:35:18;3.40;;;1.80;;
57893;SDS011;43710;47.460;19.034;2023-09-19T13:38:22;2.40;;;1.55;;
57893;SDS011;43710;47.460;19.034;2023-09-19T13:41:24;5.95;;;1.62;;
57893;SDS011;43710;47.460;19.034;2023-09-19T13:44:28;3.97;;;1.50;;
57893;SDS011;43710;47.460;19.034;2023-09-19T13:47:32;3.40;;;1.70;;
57893;SDS011;43710;47.460;19.034;2023-09-19T13:50:35;5.53;;;2.08;;
57893;SDS011;43710;47.460;19.034;2023-09-19T13:53:38;2.50;;;1.52;;
57893;SDS011;43710;47.460;19.034;2023-09-19T13:56:41;3.47;;;1.65;;
57893;SDS011;43710;47.460;19.034;2023-09-19T13:59:43;4.28;;;2.00;;
57893;SDS011;43710;47.460;19.034;2023-09-19T14:02:45;3.87;;;1.80;;
57893;SDS011;43710;47.460;19.034;2023-09-19T14:05:48;3.50;;;2.00;;
57893;SDS011;43710;47.460;19.034;2023-09-19T14:08:53;3.67;;;1.90;;
57893;SDS011;43710;47.460;19.034;2023-09-19T14:11:55;4.97;;;2.05;;
57893;SDS011;43710;47.460;19.034;2023-09-19T14:14:57;4.68;;;1.80;;
57893;SDS011;43710;47.460;19.034;2023-09-19T14:18:00;2.92;;;1.52;;
57893;SDS011;43710;47.460;19.034;2023-09-19T14:21:06;2.60;;;1.73;;
57893;SDS011;43710;47.460;19.034;2023-09-19T14:24:10;3.08;;;1.90;;
57893;SDS011;43710;47.460;19.034;2023-09-19T14:27:14;4.35;;;2.05;;
57893;SDS011;43710;47.460;19.034;2023-09-19T14:30:17;4.35;;;2.00;;
57893;SDS011;43710;47.460;19.034;2023-09-19T14:33:19;4.57;;;2.17;;
57893;SDS011;43710;47.460;19.034;2023-09-19T14:36:21;5.20;;;2.08;;
57893;SDS011;43710;47.460;19.034;2023-09-19T14:39:24;3.03;;;1.90;;
57893;SDS011;43710;47.460;19.034;2023-09-19T14:42:27;3.08;;;1.62;;
57893;SDS011;43710;47.460;19.034;2023-09-19T14:45:29;3.25;;;2.00;;
57893;SDS011;43710;47.460;19.034;2023-09-19T14:48:33;3.53;;;1.65;;
57893;SDS011;43710;47.460;19.034;2023-09-19T14:51:37;3.72;;;1.77;;
57893;SDS011;43710;47.460;19.034;2023-09-19T14:54:41;3.10;;;1.83;;
57893;SDS011;43710;47.460;19.034;2023-09-19T14:57:44;3.50;;;1.90;;
57893;SDS011;43710;47.460;19.034;2023-09-19T15:00:51;2.80;;;1.58;;
57893;SDS011;43710;47.460;19.034;2023-09-19T15:03:54;2.30;;;1.45;;
57893;SDS011;43710;47.460;19.034;2023-09-19T15:06:57;3.65;;;1.80;;
57893;SDS011;43710;47.460;19.034;2023-09-19T15:10:00;2.58;;;1.60;;
